createdAt,value
2022-10-03T00:00:58.865Z,88.15
2022-10-03T00:03:34.025Z,89.07
2022-10-03T00:06:09.983Z,88.26
2022-10-03T00:09:01.096Z,88.56
2022-10-03T00:11:47.353Z,88.02
2022-10-03T00:14:34.868Z,88.27
2022-10-03T00:17:10.853Z,88.54
2022-10-03T00:19:57.224Z,88.49
2022-10-03T00:22:36.123Z,88.71
2022-10-03T00:25:24.175Z,88.40
2022-10-03T00:28:16.705Z,88.29
2022-10-03T00:30:58.248Z,88.45
2022-10-03T00:33:27.605Z,88.12
2022-10-03T00:36:07.984Z,88.33
2022-10-03T00:38:41.229Z,88.73
2022-10-03T00:41:25.574Z,88.41
2022-10-03T00:44:29.602Z,88.21
2022-10-03T00:46:59.034Z,88.74
2022-10-03T00:49:56.961Z,88.40
2022-10-03T00:52:46.806Z,87.96
2022-10-03T00:55:22.060Z,88.29
2022-10-03T00:58:00.660Z,88.48
2022-10-03T01:00:29.248Z,88.42
2022-10-03T01:03:14.440Z,88.64
2022-10-03T01:06:06.098Z,88.59
2022-10-03T01:08:43.227Z,88.79
2022-10-03T01:11:32.440Z,88.76
2022-10-03T01:14:04.359Z,88.55
2022-10-03T01:16:51.267Z,88.67
2022-10-03T01:19:48.355Z,88.12
2022-10-03T01:22:54.112Z,88.34
2022-10-03T01:25:23.313Z,88.66
2022-10-03T01:28:17.371Z,88.76
2022-10-03T01:30:51.747Z,89.19
2022-10-03T01:33:35.318Z,88.78
2022-10-03T01:36:16.082Z,89.34
2022-10-03T01:38:49.617Z,88.81
2022-10-03T01:41:47.143Z,88.71
2022-10-03T01:44:24.411Z,88.76
2022-10-03T01:46:58.833Z,89.00
2022-10-03T01:49:33.862Z,88.59
2022-10-03T01:52:24.255Z,88.73
2022-10-03T01:55:05.600Z,88.34
2022-10-03T01:58:05.772Z,88.47
2022-10-03T02:00:45.398Z,88.19
2022-10-03T02:03:21.647Z,88.58
2022-10-03T02:06:06.781Z,88.97
2022-10-03T02:08:44.941Z,88.72
2022-10-03T02:11:27.411Z,88.70
2022-10-03T02:14:05.109Z,88.70
2022-10-03T02:16:43.344Z,88.81
2022-10-03T02:19:31.028Z,88.82
2022-10-03T02:22:00.618Z,88.50
2022-10-03T02:24:48.087Z,89.24
2022-10-03T02:27:42.398Z,89.61
2022-10-03T02:30:14.474Z,89.50
2022-10-03T02:32:58.145Z,89.04
2022-10-03T02:35:50.448Z,88.90
2022-10-03T02:38:54.573Z,88.94
2022-10-03T02:41:33.095Z,88.70
2022-10-03T02:44:06.837Z,89.02
2022-10-03T02:46:59.257Z,88.53
2022-10-03T02:50:08.175Z,88.67
2022-10-03T02:52:49.553Z,88.30
2022-10-03T02:56:08.349Z,88.39
2022-10-03T02:58:49.297Z,88.75
2022-10-03T03:01:30.827Z,88.48
2022-10-03T03:04:43.080Z,88.91
2022-10-03T03:07:37.049Z,88.70
2022-10-03T03:10:35.332Z,88.95
2022-10-03T03:13:22.341Z,88.87
2022-10-03T03:15:57.514Z,89.08
2022-10-03T03:18:30.216Z,88.97
2022-10-03T03:21:05.266Z,88.93
2022-10-03T03:23:44.086Z,88.93
2022-10-03T03:26:28.083Z,89.14
2022-10-03T03:29:21.060Z,89.01
2022-10-03T03:31:56.409Z,89.27
2022-10-03T03:34:42.149Z,89.17
2022-10-03T03:37:20.144Z,89.43
2022-10-03T03:40:01.692Z,89.60
2022-10-03T03:43:11.018Z,89.49
2022-10-03T03:46:14.746Z,89.78
2022-10-03T03:49:02.163Z,89.78
2022-10-03T03:51:56.723Z,89.81
2022-10-03T03:54:32.931Z,89.96
2022-10-03T03:57:05.400Z,90.18
2022-10-03T03:59:59.794Z,90.25
2022-10-03T04:02:44.481Z,90.17
2022-10-03T04:05:26.663Z,90.16
2022-10-03T04:08:16.968Z,90.09
2022-10-03T04:10:58.677Z,90.05
2022-10-03T04:13:53.119Z,90.08
2022-10-03T04:16:50.608Z,89.92
2022-10-03T04:19:32.644Z,90.12
2022-10-03T04:22:12.013Z,90.19
2022-10-03T04:24:43.845Z,90.01
2022-10-03T04:27:34.709Z,90.15
2022-10-03T04:30:19.894Z,90.48
2022-10-03T04:32:53.107Z,90.58
2022-10-03T04:35:31.642Z,90.55
2022-10-03T04:38:21.221Z,90.44
2022-10-03T04:40:57.714Z,90.49
2022-10-03T04:43:43.765Z,90.55
2022-10-03T04:46:33.721Z,90.07
2022-10-03T04:49:16.441Z,90.46
2022-10-03T04:51:55.541Z,90.56
2022-10-03T04:54:48.308Z,90.78
2022-10-03T04:57:28.505Z,90.79
2022-10-03T05:00:16.380Z,90.60
2022-10-03T05:02:51.467Z,90.43
2022-10-03T05:05:47.026Z,90.43
2022-10-03T05:08:30.484Z,90.63
2022-10-03T05:11:18.967Z,90.24
2022-10-03T05:14:01.066Z,90.29
2022-10-03T05:17:08.924Z,90.14
2022-10-03T05:19:36.355Z,90.54
2022-10-03T05:22:15.544Z,90.62
2022-10-03T05:25:02.029Z,90.92
2022-10-03T05:27:41.509Z,90.95
2022-10-03T05:30:10.185Z,91.19
2022-10-03T05:33:15.136Z,91.13
2022-10-03T05:36:08.869Z,91.35
2022-10-03T05:39:01.476Z,91.16
2022-10-03T05:41:41.402Z,91.33
2022-10-03T05:44:17.602Z,91.31
2022-10-03T05:46:55.551Z,91.07
2022-10-03T05:49:34.897Z,91.15
2022-10-03T05:52:34.954Z,91.27
2022-10-03T05:55:25.814Z,91.09
2022-10-03T05:57:58.241Z,91.50
2022-10-03T06:00:58.454Z,91.31
2022-10-03T06:04:03.846Z,91.49
2022-10-03T06:06:34.948Z,91.72
2022-10-03T06:09:23.441Z,91.71
2022-10-03T06:12:04.972Z,91.65
2022-10-03T06:15:09.075Z,91.41
2022-10-03T06:18:00.136Z,91.40
2022-10-03T06:20:45.262Z,91.73
2022-10-03T06:23:30.377Z,91.36
2022-10-03T06:26:28.888Z,91.54
2022-10-03T06:29:18.966Z,91.66
2022-10-03T06:31:51.764Z,91.51
2022-10-03T06:34:33.125Z,91.18
2022-10-03T06:37:02.540Z,91.26
2022-10-03T06:39:59.440Z,91.07
2022-10-03T06:43:03.343Z,91.84
2022-10-03T06:45:48.532Z,91.60
2022-10-03T06:48:29.443Z,91.12
2022-10-03T06:51:08.091Z,91.16
2022-10-03T06:53:51.244Z,90.71
2022-10-03T06:56:19.172Z,90.48
2022-10-03T06:59:13.253Z,90.81
2022-10-03T07:02:01.546Z,90.42
2022-10-03T07:05:14.169Z,89.83
2022-10-03T07:08:21.800Z,90.16
2022-10-03T07:11:00.263Z,89.63
2022-10-03T07:13:45.801Z,88.70
2022-10-03T07:16:30.458Z,88.80
2022-10-03T07:19:26.759Z,88.26
2022-10-03T07:22:08.517Z,88.42
2022-10-03T07:25:18.415Z,88.66
2022-10-03T07:27:58.376Z,88.21
2022-10-03T07:30:31.951Z,88.09
2022-10-03T07:33:38.969Z,88.46
2022-10-03T07:36:52.149Z,88.26
2022-10-03T07:39:50.517Z,88.17
2022-10-03T07:42:48.347Z,88.33
2022-10-03T07:45:39.436Z,87.36
2022-10-03T07:48:27.249Z,86.99
2022-10-03T07:51:13.238Z,86.98
2022-10-03T07:54:10.486Z,87.67
2022-10-03T07:57:03.851Z,87.28
2022-10-03T07:59:55.005Z,87.30
2022-10-03T08:02:41.200Z,86.11
2022-10-03T08:05:28.374Z,85.80
2022-10-03T08:08:20.838Z,84.92
2022-10-03T08:11:25.863Z,83.71
2022-10-03T08:14:19.169Z,83.47
2022-10-03T08:17:02.119Z,82.16
2022-10-03T08:20:05.442Z,81.87
2022-10-03T08:22:53.601Z,81.19
2022-10-03T08:25:27.046Z,80.70
2022-10-03T08:28:22.957Z,79.76
2022-10-03T08:30:58.098Z,80.36
2022-10-03T08:34:10.160Z,79.95
2022-10-03T08:36:55.139Z,79.60
2022-10-03T08:39:43.577Z,79.68
2022-10-03T08:42:57.751Z,79.53
2022-10-03T08:45:33.088Z,75.39
2022-10-03T08:48:14.932Z,74.15
2022-10-03T08:50:41.586Z,71.68
2022-10-03T08:53:50.247Z,75.91
2022-10-03T08:56:41.466Z,74.79
2022-10-03T08:59:53.044Z,76.10
2022-10-03T09:02:37.857Z,74.21
2022-10-03T09:05:16.809Z,71.91
2022-10-03T09:08:14.223Z,70.69
2022-10-03T09:11:13.215Z,68.84
2022-10-03T09:14:08.909Z,66.99
2022-10-03T09:17:00.110Z,67.60
2022-10-03T09:19:38.650Z,68.58
2022-10-03T09:22:28.019Z,66.76
2022-10-03T09:25:05.149Z,65.96
2022-10-03T09:27:43.100Z,65.05
2022-10-03T09:30:22.922Z,64.56
2022-10-03T09:33:15.215Z,63.34
2022-10-03T09:36:15.506Z,61.78
2022-10-03T09:39:03.718Z,60.14
2022-10-03T09:41:39.363Z,59.04
2022-10-03T09:44:37.148Z,58.79
2022-10-03T09:47:42.350Z,59.22
2022-10-03T09:50:37.450Z,56.99
2022-10-03T09:53:16.068Z,58.02
2022-10-03T09:56:04.967Z,55.22
2022-10-03T09:59:08.929Z,55.09
2022-10-03T10:01:45.135Z,54.71
2022-10-03T10:04:54.230Z,54.83
2022-10-03T10:07:36.405Z,53.04
2022-10-03T10:10:05.689Z,55.67
2022-10-03T10:12:51.805Z,54.13
2022-10-03T10:15:30.029Z,54.18
2022-10-03T10:18:15.094Z,53.19
2022-10-03T10:20:50.365Z,53.13
2022-10-03T10:23:32.833Z,52.47
2022-10-03T10:26:42.010Z,51.87
2022-10-03T10:29:46.933Z,50.47
2022-10-03T10:32:31.745Z,53.92
2022-10-03T10:35:25.256Z,58.06
2022-10-03T10:38:19.845Z,60.09
2022-10-03T10:41:07.882Z,62.20
2022-10-03T10:43:53.160Z,61.83
2022-10-03T10:46:42.173Z,59.59
2022-10-03T10:49:35.775Z,60.49
2022-10-03T10:52:32.947Z,59.48
2022-10-03T10:55:37.226Z,61.10
2022-10-03T10:58:34.694Z,62.73
2022-10-03T11:01:22.220Z,61.33
2022-10-03T11:03:57.822Z,63.59
2022-10-03T11:06:50.114Z,65.85
2022-10-03T11:09:57.742Z,65.29
2022-10-03T11:12:58.968Z,63.74
2022-10-03T11:15:47.731Z,61.62
2022-10-03T11:18:56.409Z,61.54
2022-10-03T11:21:59.182Z,62.20
2022-10-03T11:24:47.512Z,61.82
2022-10-03T11:27:55.325Z,59.37
2022-10-03T11:30:43.378Z,58.12
2022-10-03T11:33:47.547Z,59.80
2022-10-03T11:36:44.946Z,61.19
2022-10-03T11:39:39.031Z,61.43
2022-10-03T11:42:23.557Z,62.56
2022-10-03T11:45:06.017Z,63.52
2022-10-03T11:48:04.669Z,58.65
2022-10-03T11:50:45.366Z,53.16
2022-10-03T11:53:15.272Z,50.37
2022-10-03T11:55:53.703Z,46.92
2022-10-03T11:58:59.949Z,44.17
2022-10-03T12:01:55.551Z,42.81
2022-10-03T12:04:30.670Z,45.85
2022-10-03T12:07:21.838Z,47.42
2022-10-03T12:10:01.302Z,47.13
2022-10-03T12:12:42.201Z,48.06
2022-10-03T12:15:38.120Z,50.70
2022-10-03T12:18:23.878Z,55.32
2022-10-03T12:21:06.021Z,54.12
2022-10-03T12:23:47.696Z,56.10
2022-10-03T12:26:21.754Z,56.52
2022-10-03T12:28:54.483Z,55.47
2022-10-03T12:31:35.740Z,50.36
2022-10-03T12:34:39.871Z,48.57
2022-10-03T12:37:15.947Z,46.92
2022-10-03T12:40:00.812Z,50.67
2022-10-03T12:42:33.142Z,52.13
2022-10-03T12:45:19.070Z,53.26
2022-10-03T12:48:18.765Z,53.89
2022-10-03T12:50:59.802Z,55.96
2022-10-03T12:53:26.330Z,56.25
2022-10-03T12:56:25.162Z,56.46
2022-10-03T12:59:23.739Z,58.58
2022-10-03T13:01:50.136Z,60.08
2022-10-03T13:04:31.696Z,60.51
2022-10-03T13:07:26.339Z,61.73
2022-10-03T13:10:01.367Z,57.60
2022-10-03T13:12:43.851Z,60.61
2022-10-03T13:15:29.370Z,59.89
2022-10-03T13:18:18.898Z,61.50
2022-10-03T13:21:00.684Z,62.12
2022-10-03T13:23:32.974Z,62.47
2022-10-03T13:26:22.165Z,63.33
2022-10-03T13:29:28.529Z,62.60
2022-10-03T13:32:01.614Z,62.37
2022-10-03T13:34:34.912Z,62.81
2022-10-03T13:37:19.497Z,62.36
2022-10-03T13:39:53.583Z,62.87
2022-10-03T13:42:47.103Z,64.42
2022-10-03T13:45:21.225Z,65.62
2022-10-03T13:47:55.872Z,63.09
2022-10-03T13:50:31.132Z,64.62
2022-10-03T13:53:19.155Z,66.10
2022-10-03T13:55:58.047Z,65.94
2022-10-03T13:58:45.562Z,65.83
2022-10-03T14:01:24.246Z,67.26
2022-10-03T14:04:05.581Z,65.95
2022-10-03T14:07:09.706Z,66.86
2022-10-03T14:10:13.958Z,67.92
2022-10-03T14:13:16.979Z,70.82
2022-10-03T14:16:09.704Z,71.86
2022-10-03T14:19:05.101Z,68.34
2022-10-03T14:22:07.104Z,71.91
2022-10-03T14:24:56.016Z,74.85
2022-10-03T14:27:43.416Z,76.81
2022-10-03T14:30:21.637Z,76.44
2022-10-03T14:33:14.154Z,78.75
2022-10-03T14:36:02.293Z,78.35
2022-10-03T14:39:00.499Z,78.13
2022-10-03T14:41:32.942Z,77.73
2022-10-03T14:44:12.527Z,77.98
2022-10-03T14:46:46.864Z,77.52
2022-10-03T14:49:51.106Z,77.02
2022-10-03T14:52:09.259Z,77.22
2022-10-03T14:54:39.254Z,77.35
2022-10-03T14:57:39.640Z,76.20
2022-10-03T15:00:32.496Z,78.37
2022-10-03T15:03:13.618Z,78.59
2022-10-03T15:05:55.037Z,78.52
2022-10-03T15:08:23.563Z,80.21
2022-10-03T15:10:55.737Z,81.52
2022-10-03T15:13:24.966Z,81.50
2022-10-03T15:15:55.584Z,81.16
2022-10-03T15:18:24.641Z,80.98
2022-10-03T15:20:54.964Z,80.80
2022-10-03T15:23:26.123Z,80.58
2022-10-03T15:25:54.251Z,80.90
2022-10-03T15:28:44.921Z,81.33
2022-10-03T15:31:26.314Z,79.91
2022-10-03T15:33:54.264Z,79.36
2022-10-03T15:36:28.153Z,80.43
2022-10-03T15:39:05.293Z,81.66
2022-10-03T15:41:51.597Z,82.92
2022-10-03T15:44:24.005Z,83.04
2022-10-03T15:47:01.844Z,83.66
2022-10-03T15:49:36.426Z,83.98
2022-10-03T15:52:41.376Z,83.37
2022-10-03T15:55:34.675Z,83.47
2022-10-03T15:58:39.122Z,83.77
2022-10-03T16:01:11.299Z,84.29
2022-10-03T16:03:50.307Z,84.30
2022-10-03T16:06:29.337Z,84.52
2022-10-03T16:09:18.359Z,84.48
2022-10-03T16:12:22.160Z,84.42
2022-10-03T16:14:56.231Z,84.80
2022-10-03T16:17:49.473Z,85.16
2022-10-03T16:20:41.601Z,85.05
2022-10-03T16:23:20.159Z,85.53
2022-10-03T16:25:52.475Z,85.79
2022-10-03T16:28:28.475Z,85.63
2022-10-03T16:31:02.554Z,85.24
2022-10-03T16:33:47.737Z,86.26
2022-10-03T16:36:19.271Z,86.65
2022-10-03T16:39:05.643Z,86.70
2022-10-03T16:41:34.961Z,87.31
2022-10-03T16:44:05.701Z,86.81
2022-10-03T16:46:35.507Z,86.47
2022-10-03T16:49:28.592Z,87.37
2022-10-03T16:52:02.166Z,87.59
2022-10-03T16:54:31.648Z,87.35
2022-10-03T16:57:11.900Z,87.17
2022-10-03T16:59:42.513Z,87.22
2022-10-03T17:02:22.911Z,87.16
2022-10-03T17:04:53.911Z,87.39
2022-10-03T17:07:34.374Z,88.05
2022-10-03T17:10:01.479Z,88.18
2022-10-03T17:12:37.273Z,87.83
2022-10-03T17:15:20.779Z,87.46
2022-10-03T17:17:56.419Z,87.66
2022-10-03T17:20:33.497Z,87.30
2022-10-03T17:23:30.298Z,87.51
2022-10-03T17:26:08.172Z,87.17
2022-10-03T17:28:49.990Z,87.13
2022-10-03T17:31:29.360Z,87.14
2022-10-03T17:34:12.025Z,87.14
2022-10-03T17:37:15.594Z,87.41
2022-10-03T17:39:48.257Z,87.53
2022-10-03T17:42:38.824Z,87.25
2022-10-03T17:45:06.724Z,87.02
2022-10-03T17:47:37.976Z,86.69
2022-10-03T17:50:19.026Z,87.09
2022-10-03T17:52:47.634Z,87.17
2022-10-03T17:55:27.284Z,87.64
2022-10-03T17:58:01.656Z,87.31
2022-10-03T18:00:35.373Z,86.94
2022-10-03T18:03:04.701Z,87.05
2022-10-03T18:05:43.725Z,87.13
2022-10-03T18:08:23.452Z,86.85
2022-10-03T18:10:55.929Z,87.18
2022-10-03T18:13:45.099Z,87.56
2022-10-03T18:16:21.768Z,87.44
2022-10-03T18:19:02.239Z,87.57
2022-10-03T18:21:54.945Z,87.63
2022-10-03T18:24:27.312Z,87.94
2022-10-03T18:27:30.290Z,88.45
2022-10-03T18:30:05.959Z,87.91
2022-10-03T18:32:38.159Z,87.59
2022-10-03T18:35:17.956Z,87.44
2022-10-03T18:37:44.472Z,87.44
2022-10-03T18:40:20.926Z,87.66
2022-10-03T18:42:50.216Z,87.49
2022-10-03T18:45:27.147Z,87.38
2022-10-03T18:48:00.965Z,88.76
2022-10-03T18:50:36.742Z,88.93
2022-10-03T18:53:29.618Z,88.71
2022-10-03T18:56:09.416Z,88.08
2022-10-03T18:58:41.376Z,88.42
2022-10-03T19:01:33.873Z,88.05
2022-10-03T19:04:09.637Z,87.98
2022-10-03T19:06:38.818Z,88.41
2022-10-03T19:09:15.999Z,89.08
2022-10-03T19:12:16.038Z,88.81
2022-10-03T19:15:19.576Z,88.86
2022-10-03T19:17:56.812Z,88.67
2022-10-03T19:20:28.032Z,88.62
2022-10-03T19:23:11.472Z,88.46
2022-10-03T19:25:40.597Z,88.95
2022-10-03T19:28:30.401Z,89.60
2022-10-03T19:31:19.542Z,89.91
2022-10-03T19:33:52.432Z,89.31
2022-10-03T19:36:23.022Z,89.20
2022-10-03T19:38:51.905Z,89.43
2022-10-03T19:41:39.402Z,89.52
2022-10-03T19:44:14.854Z,89.94
2022-10-03T19:46:56.488Z,89.71
2022-10-03T19:49:30.794Z,89.66
2022-10-03T19:52:41.516Z,89.87
2022-10-03T19:55:07.940Z,89.59
2022-10-03T19:57:42.201Z,89.11
2022-10-03T20:00:18.662Z,89.67
2022-10-03T20:02:51.711Z,89.49
2022-10-03T20:05:20.758Z,89.09
2022-10-03T20:07:56.292Z,89.04
2022-10-03T20:10:48.311Z,88.82
2022-10-03T20:13:18.192Z,88.50
2022-10-03T20:15:47.598Z,88.73
2022-10-03T20:18:21.308Z,88.28
2022-10-03T20:20:50.958Z,88.64
2022-10-03T20:23:20.937Z,89.56
2022-10-03T20:25:53.309Z,89.75
2022-10-03T20:28:36.340Z,89.11
2022-10-03T20:31:03.013Z,88.87
2022-10-03T20:33:35.633Z,88.91
2022-10-03T20:36:15.431Z,88.42
2022-10-03T20:38:47.821Z,88.86
2022-10-03T20:41:56.223Z,88.21
2022-10-03T20:44:57.810Z,88.07
2022-10-03T20:47:47.890Z,87.95
2022-10-03T20:50:37.342Z,88.36
2022-10-03T20:53:19.392Z,88.92
2022-10-03T20:55:54.194Z,87.91
2022-10-03T20:58:38.613Z,88.26
2022-10-03T21:01:14.814Z,87.84
2022-10-03T21:04:11.965Z,88.20
2022-10-03T21:07:00.092Z,88.05
2022-10-03T21:09:40.952Z,88.08
2022-10-03T21:12:18.161Z,88.35
2022-10-03T21:14:51.193Z,87.89
2022-10-03T21:17:19.507Z,88.03
2022-10-03T21:19:51.856Z,88.25
2022-10-03T21:22:23.133Z,88.69
2022-10-03T21:24:58.143Z,88.42
2022-10-03T21:27:25.226Z,88.72
2022-10-03T21:29:58.254Z,88.80
2022-10-03T21:32:46.518Z,88.47
2022-10-03T21:35:35.975Z,88.64
2022-10-03T21:38:07.984Z,88.96
2022-10-03T21:41:22.105Z,88.90
2022-10-03T21:44:17.108Z,88.33
2022-10-03T21:47:02.627Z,88.90
2022-10-03T21:49:28.899Z,88.71
2022-10-03T21:52:25.788Z,88.91
2022-10-03T21:55:00.648Z,88.84
2022-10-03T21:57:45.777Z,88.82
2022-10-03T22:00:26.475Z,88.75
2022-10-03T22:03:20.021Z,89.21
2022-10-03T22:06:01.717Z,88.69
2022-10-03T22:08:35.229Z,89.37
2022-10-03T22:11:17.334Z,89.67
2022-10-03T22:14:13.110Z,89.80
2022-10-03T22:17:17.226Z,89.72
2022-10-03T22:19:51.075Z,89.40
2022-10-03T22:22:54.995Z,89.39
2022-10-03T22:25:39.007Z,89.35
2022-10-03T22:28:24.264Z,88.91
2022-10-03T22:31:17.981Z,89.17
2022-10-03T22:34:03.130Z,88.92
2022-10-03T22:36:30.253Z,89.05
2022-10-03T22:38:56.656Z,88.71
2022-10-03T22:41:30.500Z,88.56
2022-10-03T22:43:58.865Z,88.60
2022-10-03T22:46:28.547Z,88.93
2022-10-03T22:49:25.453Z,88.55
2022-10-03T22:51:54.564Z,88.59
2022-10-03T22:54:22.971Z,88.76
2022-10-03T22:57:00.177Z,88.77
2022-10-03T22:59:33.180Z,88.42
2022-10-03T23:02:04.311Z,88.83
2022-10-03T23:04:34.998Z,89.09
2022-10-03T23:07:19.232Z,89.12
2022-10-03T23:10:08.410Z,88.60
2022-10-03T23:13:24.250Z,89.42
2022-10-03T23:15:57.666Z,89.25
2022-10-03T23:18:31.728Z,89.56
2022-10-03T23:21:07.520Z,89.76
2022-10-03T23:23:42.164Z,89.93
2022-10-03T23:26:54.172Z,89.46
2022-10-03T23:29:21.154Z,89.70
2022-10-03T23:31:58.352Z,89.64
2022-10-03T23:34:40.003Z,89.97
2022-10-03T23:37:15.564Z,90.18
2022-10-03T23:40:01.844Z,90.31
2022-10-03T23:42:31.177Z,90.06
2022-10-03T23:45:11.823Z,89.96
2022-10-03T23:48:02.110Z,90.29
2022-10-03T23:50:43.839Z,90.53
2022-10-03T23:53:35.404Z,90.68
2022-10-03T23:56:04.570Z,90.70
2022-10-03T23:58:37.579Z,90.26
